sensor_id;sensor_type;location;lat;lon;timestamp;P1;durP1;ratioP1;P2;durP2;ratioP2
77061;SDS011;65989;51.686;5.138;2023-09-08T00:01:11;15.00;;;11.83;;
77061;SDS011;65989;51.686;5.138;2023-09-08T00:03:36;16.40;;;12.00;;
77061;SDS011;65989;51.686;5.138;2023-09-08T00:06:02;17.77;;;11.57;;
77061;SDS011;65989;51.686;5.138;2023-09-08T00:08:27;15.93;;;11.80;;
77061;SDS011;65989;51.686;5.138;2023-09-08T00:10:52;17.47;;;11.70;;
77061;SDS011;65989;51.686;5.138;2023-09-08T00:13:17;14.83;;;11.73;;
77061;SDS011;65989;51.686;5.138;2023-09-08T00:15:43;18.43;;;11.73;;
77061;SDS011;65989;51.686;5.138;2023-09-08T00:18:08;15.20;;;11.50;;
77061;SDS011;65989;51.686;5.138;2023-09-08T00:20:33;18.60;;;12.33;;
77061;SDS011;65989;51.686;5.138;2023-09-08T00:22:59;16.97;;;11.07;;
77061;SDS011;65989;51.686;5.138;2023-09-08T00:25:25;14.88;;;11.95;;
77061;SDS011;65989;51.686;5.138;2023-09-08T00:27:50;16.83;;;11.13;;
77061;SDS011;65989;51.686;5.138;2023-09-08T00:30:15;15.67;;;11.70;;
77061;SDS011;65989;51.686;5.138;2023-09-08T00:32:40;19.77;;;11.20;;
77061;SDS011;65989;51.686;5.138;2023-09-08T00:35:06;16.77;;;11.03;;
77061;SDS011;65989;51.686;5.138;2023-09-08T00:37:31;16.13;;;10.67;;
77061;SDS011;65989;51.686;5.138;2023-09-08T00:39:56;18.47;;;11.13;;
77061;SDS011;65989;51.686;5.138;2023-09-08T00:42:22;15.27;;;10.93;;
77061;SDS011;65989;51.686;5.138;2023-09-08T00:44:47;17.00;;;10.17;;
77061;SDS011;65989;51.686;5.138;2023-09-08T00:47:12;14.77;;;11.27;;
77061;SDS011;65989;51.686;5.138;2023-09-08T00:49:38;16.47;;;11.20;;
77061;SDS011;65989;51.686;5.138;2023-09-08T00:52:03;15.47;;;11.07;;
77061;SDS011;65989;51.686;5.138;2023-09-08T00:54:28;15.90;;;10.33;;
77061;SDS011;65989;51.686;5.138;2023-09-08T00:56:57;14.87;;;10.53;;
77061;SDS011;65989;51.686;5.138;2023-09-08T00:59:22;17.73;;;11.07;;
77061;SDS011;65989;51.686;5.138;2023-09-08T01:01:48;14.60;;;10.27;;
77061;SDS011;65989;51.686;5.138;2023-09-08T01:04:13;15.93;;;10.82;;
77061;SDS011;65989;51.686;5.138;2023-09-08T01:06:38;15.47;;;10.63;;
77061;SDS011;65989;51.686;5.138;2023-09-08T01:09:04;14.53;;;10.43;;
77061;SDS011;65989;51.686;5.138;2023-09-08T01:17:02;14.52;;;10.15;;
77061;SDS011;65989;51.686;5.138;2023-09-08T01:19:28;16.23;;;10.50;;
77061;SDS011;65989;51.686;5.138;2023-09-08T01:22:11;17.03;;;10.50;;
77061;SDS011;65989;51.686;5.138;2023-09-08T01:27:07;16.53;;;11.13;;
77061;SDS011;65989;51.686;5.138;2023-09-08T01:29:34;18.92;;;11.82;;
77061;SDS011;65989;51.686;5.138;2023-09-08T01:32:00;15.60;;;10.80;;
77061;SDS011;65989;51.686;5.138;2023-09-08T01:34:26;17.53;;;12.00;;
77061;SDS011;65989;51.686;5.138;2023-09-08T01:36:51;13.70;;;10.63;;
77061;SDS011;65989;51.686;5.138;2023-09-08T01:39:16;18.13;;;11.20;;
77061;SDS011;65989;51.686;5.138;2023-09-08T01:41:41;20.30;;;11.53;;
77061;SDS011;65989;51.686;5.138;2023-09-08T01:44:07;15.50;;;10.60;;
77061;SDS011;65989;51.686;5.138;2023-09-08T01:46:35;17.50;;;10.93;;
77061;SDS011;65989;51.686;5.138;2023-09-08T01:49:00;15.32;;;10.85;;
77061;SDS011;65989;51.686;5.138;2023-09-08T01:51:26;14.00;;;10.53;;
77061;SDS011;65989;51.686;5.138;2023-09-08T01:53:51;19.20;;;10.60;;
77061;SDS011;65989;51.686;5.138;2023-09-08T01:56:16;16.27;;;11.07;;
77061;SDS011;65989;51.686;5.138;2023-09-08T01:58:41;15.17;;;10.37;;
77061;SDS011;65989;51.686;5.138;2023-09-08T02:01:07;17.50;;;10.50;;
77061;SDS011;65989;51.686;5.138;2023-09-08T02:03:32;15.37;;;11.23;;
77061;SDS011;65989;51.686;5.138;2023-09-08T02:05:58;15.88;;;10.52;;
77061;SDS011;65989;51.686;5.138;2023-09-08T02:08:24;18.07;;;10.90;;
77061;SDS011;65989;51.686;5.138;2023-09-08T02:10:49;15.40;;;10.70;;
77061;SDS011;65989;51.686;5.138;2023-09-08T02:13:14;15.30;;;10.90;;
77061;SDS011;65989;51.686;5.138;2023-09-08T02:15:39;16.17;;;10.93;;
77061;SDS011;65989;51.686;5.138;2023-09-08T02:18:06;13.00;;;10.23;;
77061;SDS011;65989;51.686;5.138;2023-09-08T02:20:31;18.17;;;11.25;;
77061;SDS011;65989;51.686;5.138;2023-09-08T02:22:57;17.10;;;11.27;;
77061;SDS011;65989;51.686;5.138;2023-09-08T02:25:23;17.08;;;11.20;;
77061;SDS011;65989;51.686;5.138;2023-09-08T02:27:48;19.97;;;11.37;;
77061;SDS011;65989;51.686;5.138;2023-09-08T02:30:13;16.10;;;10.67;;
77061;SDS011;65989;51.686;5.138;2023-09-08T02:32:39;16.05;;;10.82;;
77061;SDS011;65989;51.686;5.138;2023-09-08T02:35:08;18.87;;;11.17;;
77061;SDS011;65989;51.686;5.138;2023-09-08T02:37:33;17.30;;;11.17;;
77061;SDS011;65989;51.686;5.138;2023-09-08T02:40:01;17.07;;;10.57;;
77061;SDS011;65989;51.686;5.138;2023-09-08T02:42:27;15.23;;;10.77;;
77061;SDS011;65989;51.686;5.138;2023-09-08T02:44:52;18.80;;;10.90;;
77061;SDS011;65989;51.686;5.138;2023-09-08T02:47:17;13.87;;;10.43;;
77061;SDS011;65989;51.686;5.138;2023-09-08T02:49:42;15.47;;;10.80;;
77061;SDS011;65989;51.686;5.138;2023-09-08T02:52:08;16.83;;;11.53;;
77061;SDS011;65989;51.686;5.138;2023-09-08T02:54:33;14.97;;;11.23;;
77061;SDS011;65989;51.686;5.138;2023-09-08T02:56:59;16.73;;;11.10;;
77061;SDS011;65989;51.686;5.138;2023-09-08T02:59:24;15.60;;;11.30;;
77061;SDS011;65989;51.686;5.138;2023-09-08T03:01:49;14.63;;;11.10;;
77061;SDS011;65989;51.686;5.138;2023-09-08T03:04:14;17.07;;;11.47;;
77061;SDS011;65989;51.686;5.138;2023-09-08T03:06:40;16.33;;;11.70;;
77061;SDS011;65989;51.686;5.138;2023-09-08T03:09:05;14.07;;;10.87;;
77061;SDS011;65989;51.686;5.138;2023-09-08T03:11:30;17.67;;;12.30;;
77061;SDS011;65989;51.686;5.138;2023-09-08T03:13:56;18.57;;;11.90;;
77061;SDS011;65989;51.686;5.138;2023-09-08T03:16:21;16.03;;;11.50;;
77061;SDS011;65989;51.686;5.138;2023-09-08T03:18:46;18.97;;;11.80;;
77061;SDS011;65989;51.686;5.138;2023-09-08T03:21:13;15.57;;;11.07;;
77061;SDS011;65989;51.686;5.138;2023-09-08T03:23:39;15.52;;;11.27;;
77061;SDS011;65989;51.686;5.138;2023-09-08T03:26:04;16.08;;;11.23;;
77061;SDS011;65989;51.686;5.138;2023-09-08T03:28:30;16.27;;;11.30;;
77061;SDS011;65989;51.686;5.138;2023-09-08T03:30:55;14.33;;;10.63;;
77061;SDS011;65989;51.686;5.138;2023-09-08T03:33:20;19.33;;;11.50;;
77061;SDS011;65989;51.686;5.138;2023-09-08T03:35:46;15.43;;;11.23;;
77061;SDS011;65989;51.686;5.138;2023-09-08T03:38:11;16.43;;;11.13;;
77061;SDS011;65989;51.686;5.138;2023-09-08T03:40:36;15.50;;;11.17;;
77061;SDS011;65989;51.686;5.138;2023-09-08T03:43:02;15.27;;;11.43;;
77061;SDS011;65989;51.686;5.138;2023-09-08T03:45:28;15.33;;;11.37;;
77061;SDS011;65989;51.686;5.138;2023-09-08T03:47:53;17.93;;;11.93;;
77061;SDS011;65989;51.686;5.138;2023-09-08T03:50:18;21.13;;;12.07;;
77061;SDS011;65989;51.686;5.138;2023-09-08T03:52:43;16.43;;;11.37;;
77061;SDS011;65989;51.686;5.138;2023-09-08T03:55:09;19.17;;;12.20;;
77061;SDS011;65989;51.686;5.138;2023-09-08T03:57:34;19.80;;;12.80;;
77061;SDS011;65989;51.686;5.138;2023-09-08T03:59:59;20.93;;;12.87;;
77061;SDS011;65989;51.686;5.138;2023-09-08T04:02:24;21.37;;;12.50;;
77061;SDS011;65989;51.686;5.138;2023-09-08T04:04:50;21.13;;;12.07;;
77061;SDS011;65989;51.686;5.138;2023-09-08T04:07:15;19.10;;;12.07;;
77061;SDS011;65989;51.686;5.138;2023-09-08T04:09:40;17.07;;;12.27;;
77061;SDS011;65989;51.686;5.138;2023-09-08T04:12:05;16.43;;;12.10;;
77061;SDS011;65989;51.686;5.138;2023-09-08T04:14:34;16.02;;;12.45;;
77061;SDS011;65989;51.686;5.138;2023-09-08T04:16:59;17.93;;;12.13;;
77061;SDS011;65989;51.686;5.138;2023-09-08T04:19:25;20.50;;;14.13;;
77061;SDS011;65989;51.686;5.138;2023-09-08T04:21:50;18.58;;;12.88;;
77061;SDS011;65989;51.686;5.138;2023-09-08T04:24:16;19.63;;;13.10;;
77061;SDS011;65989;51.686;5.138;2023-09-08T04:26:41;16.97;;;12.73;;
77061;SDS011;65989;51.686;5.138;2023-09-08T04:29:06;17.33;;;12.80;;
77061;SDS011;65989;51.686;5.138;2023-09-08T04:31:31;20.03;;;13.13;;
77061;SDS011;65989;51.686;5.138;2023-09-08T04:33:56;22.23;;;13.33;;
77061;SDS011;65989;51.686;5.138;2023-09-08T04:36:22;18.13;;;12.10;;
77061;SDS011;65989;51.686;5.138;2023-09-08T04:38:47;18.07;;;12.90;;
77061;SDS011;65989;51.686;5.138;2023-09-08T04:41:12;18.67;;;12.73;;
77061;SDS011;65989;51.686;5.138;2023-09-08T04:43:37;17.20;;;12.20;;
77061;SDS011;65989;51.686;5.138;2023-09-08T04:46:03;20.20;;;12.97;;
77061;SDS011;65989;51.686;5.138;2023-09-08T04:48:28;18.40;;;12.70;;
77061;SDS011;65989;51.686;5.138;2023-09-08T04:50:54;18.47;;;12.80;;
77061;SDS011;65989;51.686;5.138;2023-09-08T04:53:19;18.43;;;12.83;;
77061;SDS011;65989;51.686;5.138;2023-09-08T04:55:44;16.87;;;12.63;;
77061;SDS011;65989;51.686;5.138;2023-09-08T04:58:10;20.13;;;13.53;;
77061;SDS011;65989;51.686;5.138;2023-09-08T05:00:37;18.90;;;13.43;;
77061;SDS011;65989;51.686;5.138;2023-09-08T05:03:02;18.03;;;13.40;;
77061;SDS011;65989;51.686;5.138;2023-09-08T05:05:28;16.77;;;13.10;;
77061;SDS011;65989;51.686;5.138;2023-09-08T05:07:53;18.40;;;12.80;;
77061;SDS011;65989;51.686;5.138;2023-09-08T05:10:21;17.58;;;13.27;;
77061;SDS011;65989;51.686;5.138;2023-09-08T05:12:46;21.80;;;13.17;;
77061;SDS011;65989;51.686;5.138;2023-09-08T05:15:11;18.40;;;13.13;;
77061;SDS011;65989;51.686;5.138;2023-09-08T05:17:40;19.08;;;13.55;;
77061;SDS011;65989;51.686;5.138;2023-09-08T05:20:05;21.73;;;14.13;;
77061;SDS011;65989;51.686;5.138;2023-09-08T05:22:31;18.73;;;13.80;;
77061;SDS011;65989;51.686;5.138;2023-09-08T05:24:56;20.13;;;14.23;;
77061;SDS011;65989;51.686;5.138;2023-09-08T05:27:21;19.50;;;13.50;;
77061;SDS011;65989;51.686;5.138;2023-09-08T05:29:47;18.50;;;13.37;;
77061;SDS011;65989;51.686;5.138;2023-09-08T05:32:12;19.17;;;13.53;;
77061;SDS011;65989;51.686;5.138;2023-09-08T05:34:37;19.90;;;14.47;;
77061;SDS011;65989;51.686;5.138;2023-09-08T05:37:03;19.40;;;14.30;;
77061;SDS011;65989;51.686;5.138;2023-09-08T05:39:30;18.17;;;13.88;;
77061;SDS011;65989;51.686;5.138;2023-09-08T05:41:55;19.17;;;14.13;;
77061;SDS011;65989;51.686;5.138;2023-09-08T05:44:21;17.50;;;13.63;;
77061;SDS011;65989;51.686;5.138;2023-09-08T05:46:46;19.53;;;13.80;;
77061;SDS011;65989;51.686;5.138;2023-09-08T05:49:11;20.03;;;14.73;;
77061;SDS011;65989;51.686;5.138;2023-09-08T05:51:36;18.10;;;13.53;;
77061;SDS011;65989;51.686;5.138;2023-09-08T05:54:02;17.13;;;12.37;;
77061;SDS011;65989;51.686;5.138;2023-09-08T05:56:30;24.50;;;14.87;;
77061;SDS011;65989;51.686;5.138;2023-09-08T05:58:56;17.43;;;13.30;;
77061;SDS011;65989;51.686;5.138;2023-09-08T06:01:21;17.97;;;13.03;;
77061;SDS011;65989;51.686;5.138;2023-09-08T06:03:47;19.85;;;13.30;;
77061;SDS011;65989;51.686;5.138;2023-09-08T06:06:12;17.90;;;13.67;;
77061;SDS011;65989;51.686;5.138;2023-09-08T06:08:38;19.63;;;12.97;;
77061;SDS011;65989;51.686;5.138;2023-09-08T06:11:03;15.87;;;12.47;;
77061;SDS011;65989;51.686;5.138;2023-09-08T06:13:28;19.35;;;12.68;;
77061;SDS011;65989;51.686;5.138;2023-09-08T06:15:54;17.93;;;13.00;;
77061;SDS011;65989;51.686;5.138;2023-09-08T06:18:19;16.80;;;12.80;;
77061;SDS011;65989;51.686;5.138;2023-09-08T06:20:45;18.47;;;13.03;;
77061;SDS011;65989;51.686;5.138;2023-09-08T06:23:10;19.67;;;12.95;;
77061;SDS011;65989;51.686;5.138;2023-09-08T06:25:36;18.40;;;13.40;;
77061;SDS011;65989;51.686;5.138;2023-09-08T06:28:01;18.90;;;13.97;;
77061;SDS011;65989;51.686;5.138;2023-09-08T06:30:26;22.43;;;14.27;;
77061;SDS011;65989;51.686;5.138;2023-09-08T06:32:51;20.90;;;13.27;;
77061;SDS011;65989;51.686;5.138;2023-09-08T06:35:17;20.97;;;14.53;;
77061;SDS011;65989;51.686;5.138;2023-09-08T06:37:42;20.23;;;13.93;;
77061;SDS011;65989;51.686;5.138;2023-09-08T06:40:08;18.93;;;13.73;;
77061;SDS011;65989;51.686;5.138;2023-09-08T06:42:33;21.77;;;13.40;;
77061;SDS011;65989;51.686;5.138;2023-09-08T06:44:58;18.93;;;13.90;;
77061;SDS011;65989;51.686;5.138;2023-09-08T06:47:24;19.43;;;13.77;;
77061;SDS011;65989;51.686;5.138;2023-09-08T06:49:49;21.37;;;14.53;;
77061;SDS011;65989;51.686;5.138;2023-09-08T06:52:14;24.07;;;14.40;;
77061;SDS011;65989;51.686;5.138;2023-09-08T06:54:40;21.40;;;14.27;;
77061;SDS011;65989;51.686;5.138;2023-09-08T06:57:05;19.13;;;13.90;;
77061;SDS011;65989;51.686;5.138;2023-09-08T06:59:30;20.73;;;14.90;;
77061;SDS011;65989;51.686;5.138;2023-09-08T07:01:55;19.60;;;13.83;;
77061;SDS011;65989;51.686;5.138;2023-09-08T07:04:21;19.93;;;13.37;;
77061;SDS011;65989;51.686;5.138;2023-09-08T07:06:46;19.57;;;14.20;;
77061;SDS011;65989;51.686;5.138;2023-09-08T07:09:11;21.30;;;14.57;;
77061;SDS011;65989;51.686;5.138;2023-09-08T07:11:36;21.47;;;14.47;;
77061;SDS011;65989;51.686;5.138;2023-09-08T07:14:02;20.90;;;14.13;;
77061;SDS011;65989;51.686;5.138;2023-09-08T07:16:27;23.50;;;14.38;;
77061;SDS011;65989;51.686;5.138;2023-09-08T07:18:53;20.00;;;14.00;;
77061;SDS011;65989;51.686;5.138;2023-09-08T07:21:18;18.33;;;12.60;;
77061;SDS011;65989;51.686;5.138;2023-09-08T07:23:43;21.67;;;15.03;;
77061;SDS011;65989;51.686;5.138;2023-09-08T07:26:08;17.07;;;13.70;;
77061;SDS011;65989;51.686;5.138;2023-09-08T07:28:34;19.17;;;14.07;;
77061;SDS011;65989;51.686;5.138;2023-09-08T07:31:02;21.23;;;13.87;;
77061;SDS011;65989;51.686;5.138;2023-09-08T07:33:28;18.40;;;14.00;;
77061;SDS011;65989;51.686;5.138;2023-09-08T07:35:53;18.10;;;13.30;;
77061;SDS011;65989;51.686;5.138;2023-09-08T07:38:18;17.10;;;12.83;;
77061;SDS011;65989;51.686;5.138;2023-09-08T07:40:44;19.65;;;13.55;;
77061;SDS011;65989;51.686;5.138;2023-09-08T07:43:09;17.23;;;12.73;;
77061;SDS011;65989;51.686;5.138;2023-09-08T07:45:34;15.60;;;11.93;;
77061;SDS011;65989;51.686;5.138;2023-09-08T07:47:59;15.60;;;12.70;;
77061;SDS011;65989;51.686;5.138;2023-09-08T07:50:26;16.77;;;12.60;;
77061;SDS011;65989;51.686;5.138;2023-09-08T07:52:52;19.92;;;12.88;;
77061;SDS011;65989;51.686;5.138;2023-09-08T07:55:19;16.87;;;12.67;;
77061;SDS011;65989;51.686;5.138;2023-09-08T07:57:46;18.10;;;12.57;;
77061;SDS011;65989;51.686;5.138;2023-09-08T08:00:11;17.17;;;11.47;;
77061;SDS011;65989;51.686;5.138;2023-09-08T08:02:41;15.32;;;11.45;;
77061;SDS011;65989;51.686;5.138;2023-09-08T08:05:07;18.20;;;12.30;;
77061;SDS011;65989;51.686;5.138;2023-09-08T08:07:32;18.60;;;11.13;;
77061;SDS011;65989;51.686;5.138;2023-09-08T08:09:57;14.43;;;11.00;;
77061;SDS011;65989;51.686;5.138;2023-09-08T08:12:23;20.67;;;10.73;;
77061;SDS011;65989;51.686;5.138;2023-09-08T08:14:48;16.67;;;11.03;;
77061;SDS011;65989;51.686;5.138;2023-09-08T08:17:13;19.13;;;10.63;;
77061;SDS011;65989;51.686;5.138;2023-09-08T08:19:38;16.03;;;10.63;;
77061;SDS011;65989;51.686;5.138;2023-09-08T08:22:04;14.90;;;10.57;;
77061;SDS011;65989;51.686;5.138;2023-09-08T08:24:29;16.23;;;11.03;;
77061;SDS011;65989;51.686;5.138;2023-09-08T08:26:54;19.07;;;10.77;;
77061;SDS011;65989;51.686;5.138;2023-09-08T08:29:19;14.97;;;11.10;;
77061;SDS011;65989;51.686;5.138;2023-09-08T08:31:47;17.15;;;10.07;;
77061;SDS011;65989;51.686;5.138;2023-09-08T08:34:12;14.87;;;10.23;;
77061;SDS011;65989;51.686;5.138;2023-09-08T08:36:38;16.77;;;10.57;;
77061;SDS011;65989;51.686;5.138;2023-09-08T08:39:03;14.47;;;10.77;;
77061;SDS011;65989;51.686;5.138;2023-09-08T08:41:30;13.18;;;10.13;;
77061;SDS011;65989;51.686;5.138;2023-09-08T08:43:58;16.13;;;9.90;;
77061;SDS011;65989;51.686;5.138;2023-09-08T08:46:23;13.47;;;9.83;;
77061;SDS011;65989;51.686;5.138;2023-09-08T08:48:49;14.18;;;9.32;;
77061;SDS011;65989;51.686;5.138;2023-09-08T08:51:17;16.88;;;10.27;;
77061;SDS011;65989;51.686;5.138;2023-09-08T08:53:43;16.10;;;9.80;;
77061;SDS011;65989;51.686;5.138;2023-09-08T08:56:08;23.50;;;10.20;;
77061;SDS011;65989;51.686;5.138;2023-09-08T08:58:35;12.47;;;9.53;;
77061;SDS011;65989;51.686;5.138;2023-09-08T09:01:00;16.15;;;8.98;;
77061;SDS011;65989;51.686;5.138;2023-09-08T09:03:27;12.27;;;9.55;;
77061;SDS011;65989;51.686;5.138;2023-09-08T09:05:53;16.05;;;9.65;;
77061;SDS011;65989;51.686;5.138;2023-09-08T09:08:18;13.73;;;9.60;;
77061;SDS011;65989;51.686;5.138;2023-09-08T09:10:44;12.65;;;8.82;;
77061;SDS011;65989;51.686;5.138;2023-09-08T09:13:09;14.93;;;9.03;;
77061;SDS011;65989;51.686;5.138;2023-09-08T09:15:34;12.23;;;9.50;;
77061;SDS011;65989;51.686;5.138;2023-09-08T09:18:04;14.17;;;9.40;;
77061;SDS011;65989;51.686;5.138;2023-09-08T09:20:29;13.05;;;8.45;;
77061;SDS011;65989;51.686;5.138;2023-09-08T09:22:55;15.40;;;9.10;;
77061;SDS011;65989;51.686;5.138;2023-09-08T09:25:21;13.87;;;9.57;;
77061;SDS011;65989;51.686;5.138;2023-09-08T09:27:53;13.85;;;8.70;;
77061;SDS011;65989;51.686;5.138;2023-09-08T09:30:19;12.20;;;9.00;;
77061;SDS011;65989;51.686;5.138;2023-09-08T09:32:44;15.07;;;8.65;;
77061;SDS011;65989;51.686;5.138;2023-09-08T09:35:12;14.73;;;8.90;;
77061;SDS011;65989;51.686;5.138;2023-09-08T09:37:40;12.57;;;8.60;;
77061;SDS011;65989;51.686;5.138;2023-09-08T09:40:05;13.25;;;9.23;;
77061;SDS011;65989;51.686;5.138;2023-09-08T09:42:32;12.63;;;8.35;;
77061;SDS011;65989;51.686;5.138;2023-09-08T09:44:58;13.70;;;8.50;;
77061;SDS011;65989;51.686;5.138;2023-09-08T09:47:25;17.23;;;8.23;;
77061;SDS011;65989;51.686;5.138;2023-09-08T09:49:51;11.85;;;8.48;;
77061;SDS011;65989;51.686;5.138;2023-09-08T09:52:23;11.63;;;7.90;;
77061;SDS011;65989;51.686;5.138;2023-09-08T09:54:50;13.00;;;7.90;;
77061;SDS011;65989;51.686;5.138;2023-09-08T09:57:18;11.52;;;8.18;;
77061;SDS011;65989;51.686;5.138;2023-09-08T09:59:45;12.73;;;7.60;;
77061;SDS011;65989;51.686;5.138;2023-09-08T10:02:13;10.63;;;7.70;;
77061;SDS011;65989;51.686;5.138;2023-09-08T10:04:40;10.30;;;7.70;;
77061;SDS011;65989;51.686;5.138;2023-09-08T10:07:06;10.90;;;7.50;;
77061;SDS011;65989;51.686;5.138;2023-09-08T10:09:31;12.07;;;7.30;;
77061;SDS011;65989;51.686;5.138;2023-09-08T10:11:56;11.23;;;7.40;;
77061;SDS011;65989;51.686;5.138;2023-09-08T10:14:23;12.97;;;7.80;;
77061;SDS011;65989;51.686;5.138;2023-09-08T10:16:52;14.77;;;8.32;;
77061;SDS011;65989;51.686;5.138;2023-09-08T10:19:21;11.13;;;7.85;;
77061;SDS011;65989;51.686;5.138;2023-09-08T10:21:47;10.35;;;7.38;;
77061;SDS011;65989;51.686;5.138;2023-09-08T10:24:14;12.93;;;7.60;;
77061;SDS011;65989;51.686;5.138;2023-09-08T10:26:40;12.40;;;7.63;;
77061;SDS011;65989;51.686;5.138;2023-09-08T10:29:08;11.75;;;7.10;;
77061;SDS011;65989;51.686;5.138;2023-09-08T10:31:34;10.70;;;6.30;;
77061;SDS011;65989;51.686;5.138;2023-09-08T10:33:59;13.67;;;7.53;;
77061;SDS011;65989;51.686;5.138;2023-09-08T10:36:25;14.98;;;7.85;;
77061;SDS011;65989;51.686;5.138;2023-09-08T10:38:51;9.98;;;7.40;;
77061;SDS011;65989;51.686;5.138;2023-09-08T10:41:25;14.03;;;7.93;;
77061;SDS011;65989;51.686;5.138;2023-09-08T10:43:55;14.80;;;7.15;;
77061;SDS011;65989;51.686;5.138;2023-09-08T10:46:26;12.77;;;7.68;;
77061;SDS011;65989;51.686;5.138;2023-09-08T10:49:01;14.57;;;7.82;;
77061;SDS011;65989;51.686;5.138;2023-09-08T10:51:31;14.30;;;7.97;;
77061;SDS011;65989;51.686;5.138;2023-09-08T10:53:57;11.50;;;7.50;;
77061;SDS011;65989;51.686;5.138;2023-09-08T10:56:26;12.95;;;8.25;;
77061;SDS011;65989;51.686;5.138;2023-09-08T10:58:52;12.30;;;7.57;;
77061;SDS011;65989;51.686;5.138;2023-09-08T11:01:19;12.20;;;7.97;;
77061;SDS011;65989;51.686;5.138;2023-09-08T11:03:47;13.20;;;7.83;;
77061;SDS011;65989;51.686;5.138;2023-09-08T11:06:18;11.73;;;7.57;;
77061;SDS011;65989;51.686;5.138;2023-09-08T11:08:44;10.40;;;7.30;;
77061;SDS011;65989;51.686;5.138;2023-09-08T11:11:10;10.93;;;7.25;;
77061;SDS011;65989;51.686;5.138;2023-09-08T11:13:35;12.03;;;7.40;;
77061;SDS011;65989;51.686;5.138;2023-09-08T11:16:01;11.33;;;7.60;;
77061;SDS011;65989;51.686;5.138;2023-09-08T11:18:28;10.98;;;7.60;;
77061;SDS011;65989;51.686;5.138;2023-09-08T11:20:53;14.95;;;7.57;;
77061;SDS011;65989;51.686;5.138;2023-09-08T11:23:19;11.50;;;7.33;;
77061;SDS011;65989;51.686;5.138;2023-09-08T11:25:45;10.30;;;7.63;;
77061;SDS011;65989;51.686;5.138;2023-09-08T11:28:11;9.30;;;7.75;;
77061;SDS011;65989;51.686;5.138;2023-09-08T11:30:36;13.00;;;7.87;;
77061;SDS011;65989;51.686;5.138;2023-09-08T11:33:01;14.80;;;7.97;;
77061;SDS011;65989;51.686;5.138;2023-09-08T11:35:27;9.13;;;7.07;;
77061;SDS011;65989;51.686;5.138;2023-09-08T11:37:52;11.93;;;7.07;;
77061;SDS011;65989;51.686;5.138;2023-09-08T11:40:20;12.40;;;7.40;;
77061;SDS011;65989;51.686;5.138;2023-09-08T11:42:47;15.10;;;6.97;;
77061;SDS011;65989;51.686;5.138;2023-09-08T11:45:13;12.00;;;7.33;;
77061;SDS011;65989;51.686;5.138;2023-09-08T11:47:42;13.38;;;7.35;;
77061;SDS011;65989;51.686;5.138;2023-09-08T11:50:08;13.20;;;7.03;;
77061;SDS011;65989;51.686;5.138;2023-09-08T11:52:33;12.85;;;7.35;;
77061;SDS011;65989;51.686;5.138;2023-09-08T11:54:59;11.63;;;7.27;;
77061;SDS011;65989;51.686;5.138;2023-09-08T11:57:24;12.60;;;7.70;;
77061;SDS011;65989;51.686;5.138;2023-09-08T11:59:50;13.43;;;7.00;;
77061;SDS011;65989;51.686;5.138;2023-09-08T12:02:15;11.03;;;7.73;;
77061;SDS011;65989;51.686;5.138;2023-09-08T12:04:40;10.70;;;7.40;;
77061;SDS011;65989;51.686;5.138;2023-09-08T12:07:07;11.00;;;6.85;;
77061;SDS011;65989;51.686;5.138;2023-09-08T12:09:38;9.07;;;6.65;;
77061;SDS011;65989;51.686;5.138;2023-09-08T12:12:03;13.43;;;6.67;;
77061;SDS011;65989;51.686;5.138;2023-09-08T12:14:28;10.67;;;7.83;;
77061;SDS011;65989;51.686;5.138;2023-09-08T12:17:04;16.23;;;7.00;;
77061;SDS011;65989;51.686;5.138;2023-09-08T12:19:30;13.33;;;6.87;;
77061;SDS011;65989;51.686;5.138;2023-09-08T12:21:57;11.20;;;6.13;;
77061;SDS011;65989;51.686;5.138;2023-09-08T12:27:06;12.95;;;6.78;;
77061;SDS011;65989;51.686;5.138;2023-09-08T12:29:32;9.70;;;6.73;;
77061;SDS011;65989;51.686;5.138;2023-09-08T12:31:57;16.47;;;6.90;;
77061;SDS011;65989;51.686;5.138;2023-09-08T12:34:22;9.53;;;7.23;;
77061;SDS011;65989;51.686;5.138;2023-09-08T12:36:48;13.97;;;6.90;;
77061;SDS011;65989;51.686;5.138;2023-09-08T12:39:13;10.07;;;6.70;;
77061;SDS011;65989;51.686;5.138;2023-09-08T12:41:38;10.07;;;6.60;;
77061;SDS011;65989;51.686;5.138;2023-09-08T12:44:03;15.23;;;6.90;;
77061;SDS011;65989;51.686;5.138;2023-09-08T12:46:29;11.13;;;6.87;;
77061;SDS011;65989;51.686;5.138;2023-09-08T12:48:56;14.07;;;7.53;;
77061;SDS011;65989;51.686;5.138;2023-09-08T12:51:21;14.37;;;7.23;;
77061;SDS011;65989;51.686;5.138;2023-09-08T12:53:46;16.17;;;7.90;;
77061;SDS011;65989;51.686;5.138;2023-09-08T12:56:12;12.90;;;7.85;;
77061;SDS011;65989;51.686;5.138;2023-09-08T12:58:37;13.27;;;8.30;;
77061;SDS011;65989;51.686;5.138;2023-09-08T13:01:02;23.90;;;8.60;;
77061;SDS011;65989;51.686;5.138;2023-09-08T13:03:30;13.63;;;8.17;;
77061;SDS011;65989;51.686;5.138;2023-09-08T13:05:55;12.63;;;8.00;;
77061;SDS011;65989;51.686;5.138;2023-09-08T13:08:20;22.33;;;8.10;;
77061;SDS011;65989;51.686;5.138;2023-09-08T13:10:45;14.43;;;8.63;;
77061;SDS011;65989;51.686;5.138;2023-09-08T13:13:11;13.27;;;7.97;;
77061;SDS011;65989;51.686;5.138;2023-09-08T13:15:36;10.67;;;7.50;;
77061;SDS011;65989;51.686;5.138;2023-09-08T13:18:01;16.87;;;8.33;;
77061;SDS011;65989;51.686;5.138;2023-09-08T13:20:27;14.33;;;8.03;;
77061;SDS011;65989;51.686;5.138;2023-09-08T13:22:52;12.53;;;7.50;;
77061;SDS011;65989;51.686;5.138;2023-09-08T13:25:20;13.27;;;7.47;;
77061;SDS011;65989;51.686;5.138;2023-09-08T13:27:45;16.55;;;7.93;;
77061;SDS011;65989;51.686;5.138;2023-09-08T13:30:13;14.88;;;7.88;;
77061;SDS011;65989;51.686;5.138;2023-09-08T13:32:39;15.40;;;8.00;;
77061;SDS011;65989;51.686;5.138;2023-09-08T13:35:04;13.67;;;8.27;;
77061;SDS011;65989;51.686;5.138;2023-09-08T13:37:30;12.23;;;8.18;;
77061;SDS011;65989;51.686;5.138;2023-09-08T13:39:56;15.50;;;7.73;;
77061;SDS011;65989;51.686;5.138;2023-09-08T13:42:21;11.97;;;7.63;;
77061;SDS011;65989;51.686;5.138;2023-09-08T13:44:46;12.43;;;7.23;;
77061;SDS011;65989;51.686;5.138;2023-09-08T13:47:12;15.03;;;7.27;;
77061;SDS011;65989;51.686;5.138;2023-09-08T13:49:37;11.18;;;6.78;;
77061;SDS011;65989;51.686;5.138;2023-09-08T13:52:02;9.00;;;6.00;;
77061;SDS011;65989;51.686;5.138;2023-09-08T13:54:28;12.67;;;6.33;;
77061;SDS011;65989;51.686;5.138;2023-09-08T13:56:59;13.63;;;6.03;;
77061;SDS011;65989;51.686;5.138;2023-09-08T13:59:25;11.65;;;5.72;;
77061;SDS011;65989;51.686;5.138;2023-09-08T14:01:50;11.70;;;6.00;;
77061;SDS011;65989;51.686;5.138;2023-09-08T14:04:16;9.87;;;5.70;;
77061;SDS011;65989;51.686;5.138;2023-09-08T14:06:41;11.52;;;6.38;;
77061;SDS011;65989;51.686;5.138;2023-09-08T14:09:07;11.20;;;5.37;;
77061;SDS011;65989;51.686;5.138;2023-09-08T14:11:32;11.60;;;5.23;;
77061;SDS011;65989;51.686;5.138;2023-09-08T14:13:57;9.90;;;5.67;;
77061;SDS011;65989;51.686;5.138;2023-09-08T14:16:22;13.87;;;5.90;;
77061;SDS011;65989;51.686;5.138;2023-09-08T14:18:48;10.37;;;5.77;;
77061;SDS011;65989;51.686;5.138;2023-09-08T14:21:13;10.40;;;5.37;;
77061;SDS011;65989;51.686;5.138;2023-09-08T14:23:38;11.57;;;4.95;;
77061;SDS011;65989;51.686;5.138;2023-09-08T14:26:04;12.67;;;5.90;;
77061;SDS011;65989;51.686;5.138;2023-09-08T14:28:30;11.77;;;5.97;;